Time;durP1;ratioP1;P1;durP2;ratioP2;P2;SDS_P1;SDS_P2;PMS_P1;PMS_P2;Temp;Humidity;BMP_temperature;BMP_pressure;BME280_temperature;BME280_humidity;BME280_pressure;Samples;Min_cycle;Max_cycle;Signal;HPM_P1;HPM_P2
2021/04/20 00:01:40;;;;;;;15.45;13.32;;;;;;;11.67;51.36;100390.84;5094145;28;20040;-67
2021/04/20 00:04:07;;;;;;;15.88;13.88;;;;;;;11.68;51.15;100395.97;5092920;28;20047;-67
2021/04/20 00:06:34;;;;;;;14.27;12.68;;;;;;;11.83;50.03;100391.75;5094688;28;20531;-68
2021/04/20 00:09:00;;;;;;;16.85;13.25;;;;;;;11.75;50.93;100391.25;5094953;28;20090;-68
2021/04/20 00:11:27;;;;;;;16.40;12.52;;;;;;;11.79;50.43;100392.78;5087851;28;20119;-71
2021/04/20 00:13:53;;;;;;;15.05;11.23;;;;;;;11.73;50.26;100388.75;5073199;28;20044;-71
2021/04/20 00:16:20;;;;;;;13.30;11.27;;;;;;;11.84;49.17;100385.59;5077479;28;20032;-71
2021/04/20 00:18:46;;;;;;;13.02;9.63;;;;;;;11.80;49.08;100390.09;5093834;28;20451;-71
2021/04/20 00:21:13;;;;;;;13.95;10.40;;;;;;;11.94;48.13;100385.97;5090358;28;20124;-72
2021/04/20 00:23:39;;;;;;;13.98;10.38;;;;;;;11.94;48.26;100389.41;5073610;28;20041;-70
2021/04/20 00:26:06;;;;;;;11.02;9.13;;;;;;;11.91;48.10;100386.09;5073127;28;20566;-71
2021/04/20 00:28:32;;;;;;;10.60;9.45;;;;;;;11.93;47.68;100379.03;5072915;28;20072;-69
2021/04/20 00:30:58;;;;;;;13.25;10.05;;;;;;;11.90;47.66;100377.44;5073191;28;20045;-70
2021/04/20 00:33:25;;;;;;;9.85;8.82;;;;;;;11.90;47.89;100371.38;5073198;28;20064;-71
2021/04/20 00:35:52;;;;;;;10.55;8.95;;;;;;;11.94;47.64;100373.72;5071500;28;20043;-71
2021/04/20 00:38:18;;;;;;;11.60;9.55;;;;;;;12.06;47.58;100373.06;5078934;28;20036;-70
2021/04/20 00:40:45;;;;;;;10.95;8.38;;;;;;;12.13;47.06;100370.13;5093500;28;20582;-71
2021/04/20 00:43:11;;;;;;;11.52;8.68;;;;;;;12.05;47.39;100381.00;5092888;28;20046;-70
2021/04/20 00:45:39;;;;;;;16.95;10.82;;;;;;;11.93;48.96;100379.03;5093730;28;20040;-71
2021/04/20 00:48:07;;;;;;;15.18;11.10;;;;;;;11.93;49.61;100372.06;5082412;28;20499;-70
2021/04/20 00:50:40;;;;;;;14.15;10.45;;;;;;;11.92;50.07;100378.19;5078651;28;20477;-69
2021/04/20 00:53:08;;;;;;;11.93;9.90;;;;;;;11.94;49.38;100373.72;5092942;28;20060;-70
2021/04/20 00:55:36;;;;;;;14.27;9.57;;;;;;;11.85;49.44;100366.38;5086891;28;20102;-70
2021/04/20 00:58:06;;;;;;;15.43;10.48;;;;;;;11.75;50.14;100370.38;5072647;28;20479;-70
2021/04/20 01:00:33;;;;;;;12.18;10.20;;;;;;;11.63;50.96;100371.03;5078563;28;20055;-71
2021/04/20 01:03:00;;;;;;;13.40;11.10;;;;;;;11.59;51.68;100364.28;5092934;28;20040;-71
2021/04/20 01:05:35;;;;;;;13.32;11.27;;;;;;;11.58;51.15;100365.19;5090857;28;20048;-69
2021/04/20 01:08:15;;;;;;;11.55;10.25;;;;;;;11.59;51.51;100364.28;5072196;28;20050;-69
2021/04/20 01:10:54;;;;;;;12.48;11.05;;;;;;;11.49;51.63;100362.13;5072652;28;20557;-71
2021/04/20 01:13:23;;;;;;;15.10;11.35;;;;;;;11.37;51.11;100359.31;5073615;28;20068;-71
2021/04/20 01:15:52;;;;;;;12.77;10.38;;;;;;;11.41;52.34;100360.84;5073366;28;20128;-71
2021/04/20 01:18:26;;;;;;;12.18;9.38;;;;;;;11.46;51.98;100354.47;5090621;28;20120;-70
2021/04/20 01:20:55;;;;;;;15.77;11.27;;;;;;;11.28;52.36;100364.06;5093251;28;20048;-71
2021/04/20 01:23:49;;;;;;;11.52;9.20;;;;;;;11.39;52.74;100358.31;5073216;28;20044;-71
2021/04/20 01:26:18;;;;;;;14.13;9.43;;;;;;;11.40;52.60;100353.91;5071332;28;20056;-69
2021/04/20 01:28:45;;;;;;;13.68;10.43;;;;;;;11.43;51.73;100352.00;5072481;28;20044;-70
2021/04/20 01:31:13;;;;;;;10.93;9.27;;;;;;;11.38;51.72;100355.78;5072071;28;20126;-69
2021/04/20 01:33:41;;;;;;;12.88;10.07;;;;;;;11.34;52.81;100352.47;5072168;28;20052;-69
2021/04/20 01:36:11;;;;;;;12.18;10.90;;;;;;;11.12;52.51;100355.34;5071045;28;20410;-69
2021/04/20 01:38:49;;;;;;;13.80;10.38;;;;;;;11.26;52.42;100357.25;5090506;28;20101;-69
2021/04/20 01:41:16;;;;;;;14.95;10.73;;;;;;;11.22;53.80;100355.72;5092714;28;20085;-69
2021/04/20 01:43:44;;;;;;;12.05;10.32;;;;;;;11.27;52.60;100354.56;5077061;28;20052;-69
2021/04/20 01:46:10;;;;;;;14.05;10.07;;;;;;;11.20;53.47;100349.75;5071747;28;20044;-68
2021/04/20 01:48:37;;;;;;;11.10;9.23;;;;;;;11.17;53.18;100348.13;5072302;28;20108;-68
2021/04/20 01:51:04;;;;;;;11.40;10.02;;;;;;;11.09;53.94;100355.50;5073033;28;20044;-69
2021/04/20 01:53:31;;;;;;;14.15;10.65;;;;;;;11.01;54.19;100350.66;5069994;28;20056;-69
2021/04/20 01:56:06;;;;;;;14.25;10.88;;;;;;;11.08;54.39;100351.22;5081921;28;20068;-69
2021/04/20 01:58:36;;;;;;;15.77;12.50;;;;;;;10.94;54.91;100356.28;5074690;28;20075;-69
2021/04/20 02:01:13;;;;;;;13.82;12.02;;;;;;;11.07;53.29;100353.88;5071562;28;20045;-69
2021/04/20 02:03:40;;;;;;;13.40;10.40;;;;;;;10.85;54.84;100347.13;5071885;28;20036;-69
2021/04/20 02:06:07;;;;;;;13.18;11.30;;;;;;;10.82;55.10;100352.50;5071250;28;20446;-69
2021/04/20 02:08:34;;;;;;;12.32;10.65;;;;;;;10.66;55.32;100346.38;5071791;28;20037;-69
2021/04/20 02:11:06;;;;;;;15.25;12.63;;;;;;;10.67;55.56;100354.09;5071077;28;20463;-68
2021/04/20 02:13:33;;;;;;;14.85;11.80;;;;;;;10.66;54.73;100346.38;5071873;28;20048;-69
2021/04/20 02:16:04;;;;;;;14.63;12.05;;;;;;;10.79;54.07;100357.88;5072033;28;20044;-70
2021/04/20 02:18:34;;;;;;;14.55;12.02;;;;;;;10.91;54.05;100356.41;5070985;28;20052;-69
2021/04/20 02:21:01;;;;;;;16.15;12.13;;;;;;;10.77;53.99;100353.66;5071158;28;20040;-70
2021/04/20 02:23:28;;;;;;;19.98;13.77;;;;;;;10.59;53.91;100353.59;5071147;28;20410;-70
2021/04/20 02:25:55;;;;;;;17.38;12.75;;;;;;;10.77;53.65;100354.50;5070321;28;20071;-70
2021/04/20 02:28:22;;;;;;;15.43;12.23;;;;;;;10.67;54.44;100355.88;5071221;28;20037;-70
2021/04/20 02:30:49;;;;;;;16.80;12.85;;;;;;;10.58;54.26;100351.09;5074786;28;20036;-69
2021/04/20 02:33:16;;;;;;;15.77;11.70;;;;;;;10.49;54.69;100349.75;5091955;28;20056;-68
2021/04/20 02:35:43;;;;;;;13.40;11.25;;;;;;;10.63;54.47;100343.88;5091151;28;20036;-69
2021/04/20 02:38:14;;;;;;;16.02;12.15;;;;;;;10.77;53.99;100341.47;5091182;28;20040;-69
2021/04/20 02:40:41;;;;;;;14.98;12.43;;;;;;;10.53;55.35;100345.25;5089242;28;20506;-69
2021/04/20 02:43:08;;;;;;;14.40;12.75;;;;;;;10.44;55.50;100342.19;5070522;28;20056;-70
2021/04/20 02:45:34;;;;;;;17.38;12.73;;;;;;;10.48;55.84;100340.25;5071261;28;20075;-69
2021/04/20 02:48:04;;;;;;;14.02;10.27;;;;;;;10.55;55.37;100333.84;5068773;28;20094;-69
2021/04/20 02:50:32;;;;;;;14.88;12.18;;;;;;;10.34;55.62;100338.31;5070794;28;20490;-70
2021/04/20 02:53:00;;;;;;;13.88;11.82;;;;;;;10.47;55.33;100335.97;5084615;28;20123;-69
2021/04/20 02:55:27;;;;;;;15.90;12.35;;;;;;;10.45;54.52;100348.25;5091620;28;20123;-69
2021/04/20 02:57:57;;;;;;;15.68;12.38;;;;;;;10.59;54.21;100332.75;5080052;28;20064;-68
2021/04/20 03:00:25;;;;;;;16.98;13.43;;;;;;;10.40;55.34;100343.25;5091774;28;20139;-68
2021/04/20 03:02:58;;;;;;;14.05;12.55;;;;;;;10.48;54.85;100355.88;5069640;28;20380;-68
2021/04/20 03:05:27;;;;;;;17.38;13.15;;;;;;;10.58;54.75;100344.09;5070565;28;20127;-68
2021/04/20 03:07:54;;;;;;;15.30;12.98;;;;;;;10.52;54.54;100346.16;5070950;28;20399;-68
2021/04/20 03:10:23;;;;;;;15.23;13.45;;;;;;;10.42;54.98;100344.00;5079116;28;20044;-68
2021/04/20 03:12:50;;;;;;;20.48;14.27;;;;;;;10.34;55.65;100345.31;5072224;28;20533;-68
2021/04/20 03:15:18;;;;;;;16.02;12.25;;;;;;;10.18;56.49;100343.38;5070893;28;20041;-68
2021/04/20 03:17:46;;;;;;;16.00;13.20;;;;;;;10.25;55.38;100353.53;5069768;28;20068;-69
2021/04/20 03:20:15;;;;;;;19.65;13.55;;;;;;;10.11;55.03;100359.34;5081531;28;20059;-68
2021/04/20 03:22:42;;;;;;;19.08;13.80;;;;;;;10.21;54.53;100351.03;5074465;28;20037;-68
2021/04/20 03:25:12;;;;;;;19.50;13.63;;;;;;;10.34;54.62;100348.75;5071208;28;20060;-68
2021/04/20 03:27:44;;;;;;;18.77;14.27;;;;;;;10.19;55.43;100352.03;5084133;28;20123;-68
2021/04/20 03:30:12;;;;;;;17.67;13.93;;;;;;;9.93;56.31;100350.63;5091151;28;20482;-68
2021/04/20 03:32:52;;;;;;;20.40;15.85;;;;;;;9.87;56.52;100356.97;5090047;28;20044;-68
2021/04/20 03:35:25;;;;;;;18.85;15.30;;;;;;;9.69;56.61;100356.03;5091584;28;20407;-68
2021/04/20 03:38:16;;;;;;;19.58;16.10;;;;;;;9.81;56.56;100367.66;5089828;28;20433;-68
2021/04/20 03:40:50;;;;;;;20.10;16.42;;;;;;;9.86;56.79;100359.66;5090877;28;20052;-68
2021/04/20 03:43:19;;;;;;;19.90;15.88;;;;;;;9.82;56.70;100364.13;5071353;28;20541;-68
2021/04/20 03:45:54;;;;;;;20.85;16.63;;;;;;;9.64;57.42;100359.72;5070387;28;20133;-69
2021/04/20 03:48:35;;;;;;;19.52;16.95;;;;;;;9.45;58.32;100359.72;5090827;28;20044;-69
2021/04/20 03:51:18;;;;;;;23.33;18.05;;;;;;;9.56;57.85;100361.84;5089657;28;20048;-68
2021/04/20 03:53:48;;;;;;;20.58;16.70;;;;;;;9.53;57.66;100367.16;5090785;28;20105;-69
2021/04/20 03:56:15;;;;;;;20.17;16.33;;;;;;;9.42;58.56;100362.44;5086795;28;20069;-69
2021/04/20 03:58:44;;;;;;;25.80;16.73;;;;;;;9.34;59.12;100369.75;5087561;28;20040;-69
2021/04/20 04:01:13;;;;;;;18.27;15.45;;;;;;;9.59;57.72;100362.56;5070949;28;20514;-68
2021/04/20 04:03:46;;;;;;;19.67;16.65;;;;;;;9.66;57.06;100369.19;5070671;28;20571;-68
2021/04/20 04:06:14;;;;;;;21.58;16.30;;;;;;;9.61;56.97;100359.88;5077478;28;20396;-69
2021/04/20 04:08:43;;;;;;;22.50;17.83;;;;;;;9.36;58.22;100355.75;5091133;28;20055;-67
2021/04/20 04:11:12;;;;;;;19.77;16.45;;;;;;;9.55;57.64;100362.75;5086581;28;20054;-68
2021/04/20 04:13:42;;;;;;;21.25;17.23;;;;;;;9.42;58.20;100359.81;5091901;28;20043;-68
2021/04/20 04:16:12;;;;;;;21.38;17.77;;;;;;;9.27;58.52;100361.34;5074986;28;20044;-68
2021/04/20 04:18:44;;;;;;;18.83;15.30;;;;;;;9.47;57.48;100360.47;5078498;28;20041;-68
2021/04/20 04:21:14;;;;;;;20.00;15.07;;;;;;;9.39;58.07;100354.78;5080925;28;20072;-69
2021/04/20 04:23:46;;;;;;;19.10;14.80;;;;;;;9.34;57.80;100357.56;5093404;28;20120;-69
2021/04/20 04:26:22;;;;;;;16.92;14.50;;;;;;;9.30;57.89;100355.16;5085447;28;20073;-68
2021/04/20 04:28:55;;;;;;;28.80;14.82;;;;;;;9.12;58.59;100354.19;5079040;28;20097;-68
2021/04/20 04:31:22;;;;;;;20.95;15.70;;;;;;;9.08;58.62;100360.44;5079449;28;20106;-68
2021/04/20 04:33:50;;;;;;;19.30;15.95;;;;;;;9.19;58.30;100360.81;5079011;28;20041;-66
2021/04/20 04:36:17;;;;;;;20.10;15.38;;;;;;;9.17;58.38;100365.25;5076190;28;20064;-67
2021/04/20 04:38:44;;;;;;;20.02;14.88;;;;;;;9.29;58.56;100367.31;5077570;28;20506;-67
2021/04/20 04:41:12;;;;;;;19.63;15.68;;;;;;;9.34;58.40;100367.97;5077238;28;20097;-68
2021/04/20 04:43:42;;;;;;;18.67;15.50;;;;;;;9.32;58.41;100362.00;5078760;28;20106;-68
2021/04/20 04:46:09;;;;;;;22.25;16.33;;;;;;;9.30;58.61;100358.59;5081661;28;20040;-68
2021/04/20 04:48:37;;;;;;;22.08;15.85;;;;;;;9.26;58.30;100361.41;5076174;28;20090;-68
2021/04/20 04:51:06;;;;;;;16.85;14.57;;;;;;;9.29;58.41;100362.13;5077163;28;20047;-68
2021/04/20 04:53:34;;;;;;;22.52;15.75;;;;;;;9.41;58.55;100365.94;5075958;28;20072;-68
2021/04/20 04:56:02;;;;;;;20.15;16.05;;;;;;;9.65;57.71;100366.66;5079198;28;20044;-67
2021/04/20 04:58:31;;;;;;;23.13;16.45;;;;;;;9.74;57.55;100358.41;5074292;28;20036;-68
2021/04/20 05:01:01;;;;;;;21.42;15.38;;;;;;;9.80;57.91;100365.97;5075290;28;20442;-68
2021/04/20 05:03:27;;;;;;;20.25;15.43;;;;;;;9.78;58.22;100372.16;5076672;28;20130;-69
2021/04/20 05:05:59;;;;;;;25.02;17.42;;;;;;;9.79;58.11;100369.47;5083359;28;20053;-67
2021/04/20 05:08:27;;;;;;;23.75;16.65;;;;;;;10.06;57.32;100369.97;5074572;28;20454;-67
2021/04/20 05:11:01;;;;;;;22.83;15.93;;;;;;;10.24;56.18;100370.94;5075340;28;20058;-68
2021/04/20 05:13:28;;;;;;;28.33;17.83;;;;;;;10.73;53.88;100360.78;5074681;28;20124;-68
2021/04/20 05:15:55;;;;;;;24.92;16.85;;;;;;;10.75;53.65;100369.34;5079956;28;20041;-65
2021/04/20 05:18:25;;;;;;;24.08;17.80;;;;;;;10.87;54.66;100360.13;5078275;28;20101;-67
2021/04/20 05:20:52;;;;;;;20.95;16.20;;;;;;;11.02;54.79;100372.38;5076970;28;20079;-67
2021/04/20 05:23:18;;;;;;;28.02;16.70;;;;;;;11.03;54.18;100371.47;5079603;28;20383;-67
2021/04/20 05:25:45;;;;;;;27.38;18.52;;;;;;;11.14;54.32;100371.78;5073383;28;20046;-66
2021/04/20 05:28:12;;;;;;;26.73;16.48;;;;;;;11.52;54.31;100372.44;5076659;28;20048;-66
2021/04/20 05:30:38;;;;;;;23.45;16.70;;;;;;;11.73;53.65;100373.06;5072251;28;20079;-67
2021/04/20 05:33:05;;;;;;;21.17;14.88;;;;;;;11.53;53.28;100368.88;5072249;28;20032;-72
2021/04/20 05:35:31;;;;;;;20.73;15.65;;;;;;;11.29;52.49;100375.34;5077718;28;20072;-78
2021/04/20 05:37:57;;;;;;;21.25;14.75;;;;;;;11.61;50.78;100376.34;5075354;28;20119;-79
2021/04/20 05:40:27;;;;;;;22.98;17.45;;;;;;;11.34;51.64;100382.94;5081385;28;20127;-79
2021/04/20 05:42:54;;;;;;;20.80;17.02;;;;;;;11.57;51.80;100382.63;5073917;28;20043;-79
2021/04/20 05:45:21;;;;;;;22.50;16.90;;;;;;;11.55;51.70;100380.06;5073597;28;20086;-79
2021/04/20 05:47:50;;;;;;;28.25;17.60;;;;;;;11.65;51.87;100379.59;5072204;28;20114;-80
2021/04/20 05:50:25;;;;;;;28.10;19.38;;;;;;;11.95;50.61;100385.88;5071977;28;20040;-68
2021/04/20 05:52:52;;;;;;;19.45;16.92;;;;;;;11.74;51.93;100384.34;5069559;28;20040;-68
2021/04/20 05:55:19;;;;;;;23.88;18.20;;;;;;;11.94;51.13;100388.56;5071232;28;20071;-67
2021/04/20 05:57:46;;;;;;;22.15;17.13;;;;;;;12.56;50.43;100387.72;5071644;28;20451;-67
2021/04/20 06:00:15;;;;;;;20.45;15.75;;;;;;;13.26;48.52;100382.03;5070261;28;20094;-67
2021/04/20 06:02:42;;;;;;;21.73;14.98;;;;;;;13.49;47.42;100378.06;5072804;28;20403;-68
2021/04/20 06:05:15;;;;;;;20.85;15.10;;;;;;;13.86;46.68;100384.53;5073305;28;20036;-67
2021/04/20 06:07:44;;;;;;;17.88;14.57;;;;;;;14.05;46.15;100381.59;5073239;28;20067;-67
2021/04/20 06:10:12;;;;;;;19.52;14.88;;;;;;;14.09;44.93;100386.56;5072721;28;20083;-68
2021/04/20 06:12:39;;;;;;;24.48;19.65;;;;;;;13.56;45.62;100393.31;5073642;28;20048;-67
2021/04/20 06:15:08;;;;;;;34.22;17.13;;;;;;;14.32;44.62;100382.50;5072628;28;20040;-68
2021/04/20 06:17:37;;;;;;;24.60;16.55;;;;;;;14.89;43.21;100371.84;5071432;28;20040;-68
2021/04/20 06:20:06;;;;;;;25.55;16.92;;;;;;;15.22;41.43;100382.81;5070821;28;20411;-67
2021/04/20 06:22:34;;;;;;;23.27;15.50;;;;;;;15.78;41.15;100379.00;5070601;28;20045;-68
2021/04/20 06:25:02;;;;;;;26.92;15.63;;;;;;;16.01;39.99;100380.00;5070397;28;20104;-67
2021/04/20 06:27:29;;;;;;;28.45;16.67;;;;;;;16.35;38.83;100373.19;5071664;28;20048;-68
2021/04/20 06:29:57;;;;;;;21.33;17.58;;;;;;;16.53;38.75;100384.19;5070613;28;20039;-67
2021/04/20 06:32:25;;;;;;;22.33;17.92;;;;;;;17.16;38.38;100372.50;5070156;28;20086;-68
2021/04/20 06:34:53;;;;;;;24.70;17.90;;;;;;;17.51;37.23;100377.72;5070043;28;20047;-68
2021/04/20 06:37:19;;;;;;;32.28;17.13;;;;;;;17.77;37.87;100377.53;5070970;28;20147;-68
2021/04/20 06:39:46;;;;;;;19.60;16.70;;;;;;;17.49;38.19;100384.91;5071528;28;20339;-68
2021/04/20 06:42:20;;;;;;;24.50;17.33;;;;;;;17.24;38.51;100383.28;5070312;28;20079;-68
2021/04/20 06:44:58;;;;;;;20.63;18.52;;;;;;;16.96;39.22;100376.63;5071162;28;20121;-68
2021/04/20 06:47:40;;;;;;;20.58;17.88;;;;;;;16.46;39.92;100389.06;5077129;28;20043;-68
2021/04/20 06:50:11;;;;;;;24.60;16.75;;;;;;;16.99;38.87;100386.06;5071074;28;20056;-68
2021/04/20 06:52:43;;;;;;;18.98;16.77;;;;;;;17.61;38.33;100393.66;5069490;28;20122;-68
2021/04/20 06:55:14;;;;;;;23.35;18.02;;;;;;;18.02;37.56;100392.28;5070561;28;20127;-68
2021/04/20 06:58:20;;;;;;;18.63;14.68;;;;;;;18.64;36.78;100388.19;5074828;28;20112;-68
2021/04/20 07:00:57;;;;;;;21.27;16.52;;;;;;;19.30;35.75;100384.44;5008176;28;20050;-68
2021/04/20 07:03:46;;;;;;;19.13;16.90;;;;;;;19.91;34.70;100393.44;5045285;28;20044;-68
2021/04/20 07:06:20;;;;;;;23.83;16.65;;;;;;;19.99;33.98;100396.25;5068861;28;20132;-68
2021/04/20 07:08:54;;;;;;;;;;;;;;;20.06;34.21;100394.75;5070448;28;20106;-68
2021/04/20 07:11:25;;;;;;;17.15;13.85;;;;;;;20.62;33.61;100391.56;5070575;28;19966;-68
2021/04/20 07:13:56;;;;;;;14.75;12.60;;;;;;;21.25;33.42;100386.66;5071155;28;20383;-68
2021/04/20 07:16:32;;;;;;;19.85;14.63;;;;;;;21.73;32.58;100388.38;5068292;28;20094;-68
2021/04/20 07:19:28;;;;;;;17.30;14.95;;;;;;;21.67;33.37;100391.63;5070365;28;20149;-68
2021/04/20 07:22:07;;;;;;;20.95;14.77;;;;;;;21.71;33.11;100385.06;5065041;28;20122;-68
2021/04/20 07:25:00;;;;;;;18.25;12.85;;;;;;;22.03;31.80;100381.16;5070446;28;20094;-68
2021/04/20 07:27:58;;;;;;;15.18;10.70;;;;;;;22.61;29.46;100372.88;5070613;28;20458;-69
2021/04/20 07:30:33;;;;;;;15.32;10.38;;;;;;;23.21;28.08;100375.72;5071427;28;20040;-68
2021/04/20 07:33:15;;;;;;;19.77;12.10;;;;;;;22.02;30.65;100372.34;5069704;28;20044;-69
2021/04/20 07:36:11;;;;;;;16.23;10.15;;;;;;;22.81;27.83;100376.22;5069936;28;20041;-68
2021/04/20 07:38:59;;;;;;;17.10;9.63;;;;;;;23.08;27.17;100373.47;5069721;28;20072;-68
2021/04/20 07:41:48;;;;;;;14.45;9.68;;;;;;;23.81;27.03;100378.47;5069882;28;20044;-69
2021/04/20 07:44:21;;;;;;;16.15;9.93;;;;;;;23.42;26.88;100378.03;5072188;28;20041;-69
2021/04/20 07:46:52;;;;;;;17.45;11.82;;;;;;;23.54;26.38;100376.78;5073846;28;20045;-68
2021/04/20 07:49:35;;;;;;;14.05;9.93;;;;;;;24.04;25.55;100371.59;5073606;28;20406;-69
2021/04/20 07:52:34;;;;;;;14.60;10.10;;;;;;;24.64;25.75;100369.75;5074144;28;20047;-69
2021/04/20 07:55:09;;;;;;;17.98;11.07;;;;;;;24.85;25.99;100372.78;5069091;28;20566;-69
2021/04/20 07:57:48;;;;;;;13.65;8.68;;;;;;;25.25;23.73;100368.47;5072579;28;20036;-69
2021/04/20 08:00:20;;;;;;;16.05;9.80;;;;;;;24.55;24.71;100375.09;5074802;28;20067;-69
2021/04/20 08:03:16;;;;;;;17.70;10.77;;;;;;;23.64;25.90;100366.06;5072244;28;20048;-69
2021/04/20 08:06:01;;;;;;;16.13;9.70;;;;;;;23.71;24.74;100372.44;5074061;28;20049;-69
2021/04/20 08:08:33;;;;;;;16.85;9.50;;;;;;;24.78;23.64;100361.97;5073264;28;20044;-68
2021/04/20 08:11:09;;;;;;;14.88;8.85;;;;;;;24.43;23.71;100371.06;5074745;28;20457;-68
2021/04/20 08:13:54;;;;;;;15.38;9.30;;;;;;;24.86;23.21;100363.78;5091806;28;20048;-68
2021/04/20 08:16:33;;;;;;;17.15;10.55;;;;;;;25.46;23.63;100359.91;5094483;28;20047;-69
2021/04/20 08:19:15;;;;;;;17.23;10.65;;;;;;;25.45;22.82;100359.09;5094419;28;20043;-69
2021/04/20 08:21:50;;;;;;;13.88;8.68;;;;;;;25.24;22.89;100369.47;5092495;28;20058;-69
2021/04/20 08:24:42;;;;;;;15.00;8.93;;;;;;;25.00;23.13;100371.13;5073370;28;20049;-68
2021/04/20 08:27:31;;;;;;;15.18;7.80;;;;;;;25.49;23.54;100365.75;5074063;28;20491;-68
2021/04/20 08:30:13;;;;;;;15.00;9.90;;;;;;;25.29;22.34;100367.94;5073617;28;20102;-69
2021/04/20 08:32:44;;;;;;;15.00;7.78;;;;;;;26.26;21.87;100362.47;5073140;28;20059;-69
2021/04/20 08:35:16;;;;;;;15.20;9.30;;;;;;;25.79;22.28;100356.19;5074078;28;20045;-68
2021/04/20 08:37:58;;;;;;;14.73;9.32;;;;;;;24.83;23.89;100362.28;5073160;28;20040;-69
2021/04/20 08:40:31;;;;;;;16.33;9.18;;;;;;;23.76;24.62;100362.97;5073801;28;20041;-69
2021/04/20 08:43:20;;;;;;;15.93;9.38;;;;;;;23.67;26.32;100360.44;5072638;28;20049;-69
2021/04/20 08:46:21;;;;;;;14.02;10.57;;;;;;;23.65;25.05;100362.41;5073961;28;20045;-69
2021/04/20 08:49:09;;;;;;;20.90;10.50;;;;;;;23.33;25.56;100363.88;5073502;28;20407;-69
2021/04/20 08:51:53;;;;;;;29.90;10.65;;;;;;;24.02;25.40;100354.94;5073769;28;20052;-69
2021/04/20 08:54:44;;;;;;;20.30;10.00;;;;;;;24.46;25.76;100354.75;5072735;28;20444;-69
2021/04/20 08:57:32;;;;;;;17.25;9.45;;;;;;;24.48;24.86;100354.59;5072071;28;20955;-69
2021/04/20 09:00:45;;;;;;;18.88;11.00;;;;;;;23.73;25.52;100357.13;5073195;28;20060;-69
2021/04/20 09:03:24;;;;;;;14.13;9.10;;;;;;;23.80;25.07;100360.81;5001287;28;20578;-68
2021/04/20 09:05:56;;;;;;;23.38;11.27;;;;;;;24.07;24.48;100366.91;5011541;28;20065;-67
2021/04/20 09:08:23;;;;;;;15.50;11.40;;;;;;;23.77;24.87;100363.81;5051015;28;20420;-68
2021/04/20 09:11:04;;;;;;;16.25;10.00;;;;;;;24.66;24.00;100352.63;5073324;28;20044;-68
2021/04/20 09:13:51;;;;;;;15.73;10.07;;;;;;;23.81;25.22;100362.50;5071949;28;20124;-68
2021/04/20 09:16:21;;;;;;;20.35;11.75;;;;;;;24.38;24.22;100359.22;5073130;28;20454;-68
2021/04/20 09:18:47;;;;;;;16.48;10.07;;;;;;;24.82;23.52;100349.09;5076935;28;20040;-68
2021/04/20 09:21:22;;;;;;;17.33;10.82;;;;;;;23.78;24.78;100358.31;5092066;28;20047;-68
2021/04/20 09:24:00;;;;;;;16.52;10.45;;;;;;;23.60;24.88;100351.41;5092720;28;20127;-68
2021/04/20 09:26:46;;;;;;;21.08;12.75;;;;;;;23.70;25.82;100355.63;5081306;28;20046;-68
2021/04/20 09:29:20;;;;;;;15.05;9.85;;;;;;;23.59;25.75;100347.88;5071444;28;20044;-68
2021/04/20 09:31:57;;;;;;;15.60;12.73;;;;;;;22.94;26.26;100348.28;5073205;28;20037;-69
2021/04/20 09:34:40;;;;;;;21.40;12.75;;;;;;;22.86;26.75;100340.22;5070813;28;20045;-68
2021/04/20 09:37:07;;;;;;;22.38;14.10;;;;;;;22.37;26.56;100352.19;5072718;28;20663;-68
2021/04/20 09:39:41;;;;;;;20.35;12.75;;;;;;;22.30;27.17;100348.47;5083051;28;20054;-69
2021/04/20 09:42:09;;;;;;;20.43;12.80;;;;;;;21.80;28.43;100349.69;5092554;28;20525;-68
2021/04/20 09:45:13;;;;;;;19.88;12.68;;;;;;;21.88;28.36;100349.78;5079455;28;20487;-68
2021/04/20 09:48:08;;;;;;;18.08;12.32;;;;;;;21.60;28.71;100350.75;5042297;28;20202;-68
2021/04/20 09:51:03;;;;;;;21.90;15.98;;;;;;;20.90;29.31;100347.50;5071221;28;20492;-68
2021/04/20 09:54:09;;;;;;;19.73;13.15;;;;;;;21.16;29.53;100345.94;5071725;28;20091;-67
2021/04/20 09:57:06;;;;;;;18.08;14.13;;;;;;;21.30;29.32;100349.16;5072155;28;20396;-68
2021/04/20 09:59:57;;;;;;;23.45;15.45;;;;;;;20.81;29.33;100343.88;5071249;28;20055;-68
2021/04/20 10:02:23;;;;;;;21.98;15.02;;;;;;;21.16;29.18;100348.59;5072990;28;20072;-68
2021/04/20 10:05:17;;;;;;;20.70;15.07;;;;;;;21.41;28.73;100339.22;5071155;28;20044;-67
2021/04/20 10:08:16;;;;;;;19.40;13.73;;;;;;;21.54;28.54;100351.34;5036017;28;20049;-67
2021/04/20 10:10:57;;;;;;;19.13;15.55;;;;;;;20.83;29.01;100341.94;5071150;28;20090;-67
2021/04/20 10:13:53;;;;;;;23.55;15.93;;;;;;;20.92;31.05;100337.59;5071713;28;20068;-67
2021/04/20 10:16:25;;;;;;;27.27;17.58;;;;;;;20.60;29.82;100343.19;5065766;28;20051;-67
2021/04/20 10:19:10;;;;;;;29.42;21.45;;;;;;;20.10;30.22;100343.22;5091711;28;20036;-67
2021/04/20 10:22:28;;;;;;;24.50;17.15;;;;;;;20.22;29.92;100342.13;5091537;28;20044;-67
2021/04/20 10:25:07;;;;;;;28.08;17.08;;;;;;;20.36;30.30;100333.81;5052061;28;20040;-67
2021/04/20 10:27:36;;;;;;;22.08;14.93;;;;;;;20.31;30.84;100338.69;5072283;28;20499;-67
2021/04/20 10:30:14;;;;;;;23.40;18.25;;;;;;;20.25;29.91;100330.44;5070220;28;20540;-67
2021/04/20 10:32:51;;;;;;;25.35;18.10;;;;;;;20.02;30.78;100343.88;5079161;28;20490;-67
2021/04/20 10:35:21;;;;;;;29.65;18.80;;;;;;;20.33;29.95;100328.78;5092045;28;20044;-66
2021/04/20 10:37:52;;;;;;;21.83;16.65;;;;;;;20.25;30.57;100330.44;5091985;28;20051;-67
2021/04/20 10:40:25;;;;;;;25.15;16.70;;;;;;;20.39;30.04;100324.75;5085489;28;20045;-67
2021/04/20 10:42:52;;;;;;;20.45;15.38;;;;;;;20.46;29.85;100331.22;5070288;28;20056;-67
2021/04/20 10:45:24;;;;;;;23.65;18.27;;;;;;;20.55;29.34;100318.94;5070610;28;20073;-67
2021/04/20 10:47:53;;;;;;;25.10;17.77;;;;;;;20.42;28.84;100317.38;5069977;28;20419;-67
2021/04/20 10:50:24;;;;;;;25.35;18.67;;;;;;;20.38;28.55;100318.59;5069178;28;20087;-67
2021/04/20 10:53:07;;;;;;;26.80;18.00;;;;;;;20.55;28.65;100313.63;5070736;28;20105;-67
2021/04/20 10:55:38;;;;;;;26.15;18.52;;;;;;;20.47;29.01;100314.34;5070770;28;20036;-67
2021/04/20 10:58:07;;;;;;;21.02;16.08;;;;;;;20.57;29.05;100303.75;5070799;28;20438;-67
2021/04/20 11:00:34;;;;;;;26.33;18.95;;;;;;;20.48;28.85;100309.88;5071042;28;20048;-66
2021/04/20 11:03:04;;;;;;;21.77;16.92;;;;;;;20.58;28.40;100300.13;5070857;28;20466;-67
2021/04/20 11:05:30;;;;;;;22.38;17.58;;;;;;;20.68;28.18;100298.31;5071508;28;20044;-67
2021/04/20 11:07:58;;;;;;;23.85;17.15;;;;;;;20.68;28.06;100293.00;5071124;28;20071;-67
2021/04/20 11:10:33;;;;;;;26.48;16.30;;;;;;;20.27;29.43;100286.97;5072085;28;20045;-67
2021/04/20 11:13:00;;;;;;;23.65;16.00;;;;;;;20.15;28.19;100293.38;5069704;28;20260;-67
2021/04/20 11:15:29;;;;;;;29.02;16.25;;;;;;;20.06;28.22;100299.47;5071381;28;20119;-67
2021/04/20 11:18:02;;;;;;;24.73;16.08;;;;;;;20.27;28.18;100289.63;5086301;28;20040;-67
2021/04/20 11:20:32;;;;;;;21.25;15.32;;;;;;;20.36;27.94;100285.31;5090703;28;20048;-65
2021/04/20 11:23:06;;;;;;;21.65;15.35;;;;;;;20.29;27.54;100290.31;5073607;28;20045;-65
2021/04/20 11:25:55;;;;;;;28.17;15.18;;;;;;;20.20;29.45;100288.50;5071099;28;20679;-67
2021/04/20 11:28:41;;;;;;;26.00;18.05;;;;;;;20.28;29.33;100283.34;5083604;28;20495;-66
2021/04/20 11:31:23;;;;;;;20.83;15.63;;;;;;;20.24;29.48;100273.16;5080582;28;20048;-67
2021/04/20 11:33:57;;;;;;;22.10;15.45;;;;;;;20.23;28.29;100276.78;5091116;28;20040;-66
2021/04/20 11:36:39;;;;;;;20.67;14.48;;;;;;;20.40;28.47;100276.97;5076930;28;20044;-67
2021/04/20 11:39:09;;;;;;;22.40;13.60;;;;;;;20.45;27.92;100278.34;5081390;28;20121;-67
2021/04/20 11:41:44;;;;;;;20.58;14.95;;;;;;;20.26;27.20;100274.72;5083573;28;20135;-67